Terminal Aerodrome Forecast
Issued by NWS Wilmington, OH

Current Version | Previous Version | Text Only | Print | Product List | Glossary Off
Versions: 1 2 3 4 5 6 7 8 9 10 11 12 13 14 15 16 17 18 19 20 21 22

000
FTUS41 KILN 031600 AAA
TAFCMH
TAF AMD
KCMH 031607Z 0316/0412 04005KT P6SM OVC025
     FM031900 10006KT P6SM BKN035
     FM032300 12004KT P6SM BKN050
     FM040900 13003KT P6SM BKN100=

USA.gov is the U.S. government's official web portal to all federal, state and local government web resources and services.